Terminal Aerodrome Forecast
Issued by NWS

Home | Current Version | Previous Version | Text Only | Print | Product List | Glossary On
Versions: 1 2 3 4 5 6 7 8 9 10 11
000
FTUS46 KSEW 291100
TAFOLM
TAF
KOLM 291130Z 2912/3012 00000KT P6SM SCT018 OVC040
      TEMPO 2912/2916 4SM -SHRA BR BKN018 OVC040
     FM291600 03006KT P6SM BKN100
     FM292200 04010G16KT P6SM SKC
     FM301000 00000KT 1SM BR SKC=

USA.gov is the U.S. government's official web portal to all federal, state and local government web resources and services.